sensor_id;sensor_type;location;lat;lon;timestamp;pressure;altitude;pressure_sealevel;temperature;humidity
56719;BME280;42597;40.636;0.278;2022-09-29T00:01:58;96354.09;;;18.14;52.18
56719;BME280;42597;40.636;0.278;2022-09-29T00:04:23;96343.81;;;19.12;49.77
56719;BME280;42597;40.636;0.278;2022-09-29T00:06:49;96343.41;;;18.94;50.27
56719;BME280;42597;40.636;0.278;2022-09-29T00:09:14;96318.81;;;19.10;50.33
56719;BME280;42597;40.636;0.278;2022-09-29T00:11:40;96326.78;;;19.41;50.15
56719;BME280;42597;40.636;0.278;2022-09-29T00:14:05;96308.84;;;19.00;50.24
56719;BME280;42597;40.636;0.278;2022-09-29T00:16:31;96288.09;;;19.39;51.82
56719;BME280;42597;40.636;0.278;2022-09-29T00:18:56;96283.72;;;19.78;51.62
56719;BME280;42597;40.636;0.278;2022-09-29T00:21:22;96284.75;;;19.67;51.20
56719;BME280;42597;40.636;0.278;2022-09-29T00:23:49;96291.50;;;20.44;50.05
56719;BME280;42597;40.636;0.278;2022-09-29T00:26:17;96289.66;;;19.92;48.70
56719;BME280;42597;40.636;0.278;2022-09-29T00:28:55;96287.19;;;19.98;48.83
56719;BME280;42597;40.636;0.278;2022-09-29T00:31:26;96276.16;;;19.29;49.49
56719;BME280;42597;40.636;0.278;2022-09-29T00:33:52;96285.03;;;19.53;51.32
56719;BME280;42597;40.636;0.278;2022-09-29T00:36:19;96287.16;;;19.65;52.32
56719;BME280;42597;40.636;0.278;2022-09-29T00:38:46;96254.25;;;19.29;52.04
56719;BME280;42597;40.636;0.278;2022-09-29T00:41:27;96266.44;;;20.13;49.99
56719;BME280;42597;40.636;0.278;2022-09-29T00:51:43;96265.75;;;20.09;50.97
56719;BME280;42597;40.636;0.278;2022-09-29T00:54:09;96271.59;;;19.95;50.87
56719;BME280;42597;40.636;0.278;2022-09-29T00:56:38;96255.81;;;20.15;50.87
56719;BME280;42597;40.636;0.278;2022-09-29T00:59:13;96266.63;;;20.06;50.54
56719;BME280;42597;40.636;0.278;2022-09-29T01:01:40;96260.94;;;19.81;50.94
56719;BME280;42597;40.636;0.278;2022-09-29T01:04:10;96264.56;;;19.94;48.41
56719;BME280;42597;40.636;0.278;2022-09-29T01:06:40;96263.84;;;19.01;50.30
56719;BME280;42597;40.636;0.278;2022-09-29T01:09:11;96271.75;;;20.20;50.75
56719;BME280;42597;40.636;0.278;2022-09-29T01:11:38;96275.25;;;19.36;51.33
56719;BME280;42597;40.636;0.278;2022-09-29T01:14:07;96272.09;;;19.17;50.39
56719;BME280;42597;40.636;0.278;2022-09-29T01:16:35;96265.91;;;19.69;50.11
56719;BME280;42597;40.636;0.278;2022-09-29T01:19:06;96274.78;;;19.57;52.48
56719;BME280;42597;40.636;0.278;2022-09-29T01:36:23;96284.53;;;17.92;54.37
56719;BME280;42597;40.636;0.278;2022-09-29T01:41:56;96279.28;;;20.00;51.92
56719;BME280;42597;40.636;0.278;2022-09-29T01:44:40;96278.75;;;18.13;55.81
56719;BME280;42597;40.636;0.278;2022-09-29T01:47:11;96264.22;;;19.39;51.50
56719;BME280;42597;40.636;0.278;2022-09-29T01:49:43;96280.50;;;18.90;54.29
56719;BME280;42597;40.636;0.278;2022-09-29T01:52:17;96280.97;;;18.85;54.22
56719;BME280;42597;40.636;0.278;2022-09-29T01:54:51;96284.19;;;17.90;54.68
56719;BME280;42597;40.636;0.278;2022-09-29T02:00:00;96271.19;;;17.70;55.47
56719;BME280;42597;40.636;0.278;2022-09-29T02:02:38;96262.41;;;17.86;55.57
56719;BME280;42597;40.636;0.278;2022-09-29T02:05:11;96241.19;;;18.17;57.28
56719;BME280;42597;40.636;0.278;2022-09-29T02:07:41;96229.13;;;18.78;52.82
56719;BME280;42597;40.636;0.278;2022-09-29T02:10:30;96230.47;;;18.70;55.88
56719;BME280;42597;40.636;0.278;2022-09-29T02:12:59;96222.94;;;18.54;53.24
56719;BME280;42597;40.636;0.278;2022-09-29T02:15:30;96202.19;;;19.13;51.12
56719;BME280;42597;40.636;0.278;2022-09-29T02:18:04;96207.81;;;17.56;56.19
56719;BME280;42597;40.636;0.278;2022-09-29T02:20:32;96199.13;;;18.31;54.58
56719;BME280;42597;40.636;0.278;2022-09-29T02:22:57;96199.00;;;17.95;55.78
56719;BME280;42597;40.636;0.278;2022-09-29T02:25:23;96192.88;;;19.10;53.87
56719;BME280;42597;40.636;0.278;2022-09-29T02:27:49;96183.63;;;18.64;55.51
56719;BME280;42597;40.636;0.278;2022-09-29T02:30:16;96189.88;;;18.45;54.13
56719;BME280;42597;40.636;0.278;2022-09-29T02:32:42;96172.56;;;19.77;52.38
56719;BME280;42597;40.636;0.278;2022-09-29T02:35:10;96184.16;;;18.79;51.46
56719;BME280;42597;40.636;0.278;2022-09-29T02:43:21;96205.41;;;18.71;52.27
56719;BME280;42597;40.636;0.278;2022-09-29T02:46:20;96195.00;;;18.43;51.72
56719;BME280;42597;40.636;0.278;2022-09-29T02:51:40;96180.16;;;19.53;51.67
56719;BME280;42597;40.636;0.278;2022-09-29T02:54:35;96170.31;;;18.66;55.77
56719;BME280;42597;40.636;0.278;2022-09-29T03:02:31;96189.22;;;18.97;50.27
56719;BME280;42597;40.636;0.278;2022-09-29T03:04:56;96192.09;;;19.79;53.26
56719;BME280;42597;40.636;0.278;2022-09-29T03:07:22;96192.69;;;18.81;52.04
56719;BME280;42597;40.636;0.278;2022-09-29T03:09:47;96197.38;;;18.41;51.59
56719;BME280;42597;40.636;0.278;2022-09-29T03:12:13;96205.13;;;18.46;51.57
56719;BME280;42597;40.636;0.278;2022-09-29T03:14:39;96197.16;;;17.88;53.08
56719;BME280;42597;40.636;0.278;2022-09-29T03:17:04;96205.78;;;17.60;53.18
56719;BME280;42597;40.636;0.278;2022-09-29T03:19:30;96196.94;;;18.22;52.77
56719;BME280;42597;40.636;0.278;2022-09-29T03:21:56;96188.31;;;17.81;54.71
56719;BME280;42597;40.636;0.278;2022-09-29T03:24:21;96192.28;;;17.76;52.91
56719;BME280;42597;40.636;0.278;2022-09-29T03:26:47;96200.53;;;17.96;52.30
56719;BME280;42597;40.636;0.278;2022-09-29T03:29:12;96198.56;;;18.40;55.63
56719;BME280;42597;40.636;0.278;2022-09-29T03:31:41;96203.84;;;18.31;52.40
56719;BME280;42597;40.636;0.278;2022-09-29T03:34:06;96192.16;;;18.70;53.25
56719;BME280;42597;40.636;0.278;2022-09-29T03:36:32;96196.28;;;17.17;54.55
56719;BME280;42597;40.636;0.278;2022-09-29T03:38:57;96183.78;;;17.94;53.29
56719;BME280;42597;40.636;0.278;2022-09-29T03:41:23;96186.81;;;18.43;54.63
56719;BME280;42597;40.636;0.278;2022-09-29T03:43:48;96165.97;;;18.09;51.71
56719;BME280;42597;40.636;0.278;2022-09-29T03:46:14;96169.81;;;17.65;55.51
56719;BME280;42597;40.636;0.278;2022-09-29T03:48:39;96168.78;;;18.25;53.22
56719;BME280;42597;40.636;0.278;2022-09-29T03:51:05;96168.78;;;18.65;50.61
56719;BME280;42597;40.636;0.278;2022-09-29T03:53:33;96164.16;;;18.62;51.29
56719;BME280;42597;40.636;0.278;2022-09-29T03:55:59;96158.94;;;18.88;52.61
56719;BME280;42597;40.636;0.278;2022-09-29T03:58:24;96175.56;;;17.47;54.21
56719;BME280;42597;40.636;0.278;2022-09-29T04:00:50;96170.22;;;18.10;52.46
56719;BME280;42597;40.636;0.278;2022-09-29T04:03:16;96174.66;;;18.84;55.30
56719;BME280;42597;40.636;0.278;2022-09-29T04:05:44;96164.31;;;19.28;52.74
56719;BME280;42597;40.636;0.278;2022-09-29T04:08:09;96170.53;;;18.56;52.18
56719;BME280;42597;40.636;0.278;2022-09-29T04:10:36;96177.44;;;18.20;52.33
56719;BME280;42597;40.636;0.278;2022-09-29T04:13:02;96166.97;;;18.79;52.74
56719;BME280;42597;40.636;0.278;2022-09-29T04:15:28;96165.53;;;18.90;49.89
56719;BME280;42597;40.636;0.278;2022-09-29T04:17:54;96171.03;;;19.76;53.48
56719;BME280;42597;40.636;0.278;2022-09-29T04:20:19;96161.28;;;18.30;54.21
56719;BME280;42597;40.636;0.278;2022-09-29T04:22:45;96160.91;;;19.40;54.20
56719;BME280;42597;40.636;0.278;2022-09-29T04:25:10;96168.84;;;18.82;52.69
56719;BME280;42597;40.636;0.278;2022-09-29T04:27:36;96154.63;;;19.23;52.87
56719;BME280;42597;40.636;0.278;2022-09-29T04:30:03;96159.63;;;18.92;54.80
56719;BME280;42597;40.636;0.278;2022-09-29T04:32:28;96150.41;;;18.46;50.26
56719;BME280;42597;40.636;0.278;2022-09-29T04:34:54;96146.03;;;18.68;52.75
56719;BME280;42597;40.636;0.278;2022-09-29T04:37:20;96148.94;;;19.34;52.62
56719;BME280;42597;40.636;0.278;2022-09-29T04:39:45;96147.44;;;18.77;50.48
56719;BME280;42597;40.636;0.278;2022-09-29T04:42:11;96143.88;;;18.60;53.17
56719;BME280;42597;40.636;0.278;2022-09-29T04:44:36;96146.16;;;18.61;51.85
56719;BME280;42597;40.636;0.278;2022-09-29T04:47:02;96152.97;;;19.09;54.22
56719;BME280;42597;40.636;0.278;2022-09-29T04:49:28;96149.97;;;18.67;53.04
56719;BME280;42597;40.636;0.278;2022-09-29T04:51:53;96157.91;;;18.62;52.44
56719;BME280;42597;40.636;0.278;2022-09-29T04:54:19;96164.13;;;17.28;53.39
56719;BME280;42597;40.636;0.278;2022-09-29T04:56:47;96148.13;;;19.49;52.43
56719;BME280;42597;40.636;0.278;2022-09-29T04:59:13;96156.38;;;17.78;52.04
56719;BME280;42597;40.636;0.278;2022-09-29T05:01:39;96173.00;;;18.50;52.31
56719;BME280;42597;40.636;0.278;2022-09-29T05:04:05;96166.19;;;18.38;52.96
56719;BME280;42597;40.636;0.278;2022-09-29T05:06:32;96169.66;;;17.99;51.62
56719;BME280;42597;40.636;0.278;2022-09-29T05:08:58;96163.72;;;17.57;52.87
56719;BME280;42597;40.636;0.278;2022-09-29T05:11:23;96156.88;;;17.92;56.11
56719;BME280;42597;40.636;0.278;2022-09-29T05:13:49;96153.84;;;18.70;55.48
56719;BME280;42597;40.636;0.278;2022-09-29T05:16:17;96168.84;;;17.79;52.66
56719;BME280;42597;40.636;0.278;2022-09-29T05:18:43;96172.00;;;18.80;54.63
56719;BME280;42597;40.636;0.278;2022-09-29T05:21:09;96161.78;;;17.31;53.56
56719;BME280;42597;40.636;0.278;2022-09-29T05:23:34;96165.25;;;17.58;53.49
56719;BME280;42597;40.636;0.278;2022-09-29T05:26:02;96151.16;;;18.66;54.82
56719;BME280;42597;40.636;0.278;2022-09-29T05:28:28;96151.66;;;18.21;51.69
56719;BME280;42597;40.636;0.278;2022-09-29T05:30:54;96151.09;;;18.10;52.02
56719;BME280;42597;40.636;0.278;2022-09-29T05:33:19;96139.47;;;18.06;51.18
56719;BME280;42597;40.636;0.278;2022-09-29T05:35:45;96143.72;;;18.67;50.38
56719;BME280;42597;40.636;0.278;2022-09-29T05:38:10;96139.09;;;18.84;50.28
56719;BME280;42597;40.636;0.278;2022-09-29T05:40:36;96136.72;;;18.66;51.05
56719;BME280;42597;40.636;0.278;2022-09-29T05:43:02;96135.91;;;19.38;52.86
56719;BME280;42597;40.636;0.278;2022-09-29T05:45:27;96117.75;;;19.11;52.79
56719;BME280;42597;40.636;0.278;2022-09-29T05:47:53;96121.84;;;19.03;52.42
56719;BME280;42597;40.636;0.278;2022-09-29T05:50:19;96133.84;;;18.53;52.48
56719;BME280;42597;40.636;0.278;2022-09-29T05:52:45;96138.28;;;19.03;52.25
56719;BME280;42597;40.636;0.278;2022-09-29T05:55:14;96135.81;;;18.72;51.19
56719;BME280;42597;40.636;0.278;2022-09-29T05:57:39;96150.00;;;19.04;50.67
56719;BME280;42597;40.636;0.278;2022-09-29T06:00:06;96167.19;;;19.04;52.49
56719;BME280;42597;40.636;0.278;2022-09-29T06:02:32;96177.50;;;19.33;47.87
56719;BME280;42597;40.636;0.278;2022-09-29T06:04:58;96175.03;;;18.86;51.79
56719;BME280;42597;40.636;0.278;2022-09-29T06:07:24;96176.63;;;20.01;50.66
56719;BME280;42597;40.636;0.278;2022-09-29T06:09:50;96182.03;;;19.39;51.06
56719;BME280;42597;40.636;0.278;2022-09-29T06:12:15;96172.13;;;20.24;49.58
56719;BME280;42597;40.636;0.278;2022-09-29T06:14:41;96175.56;;;20.28;49.33
56719;BME280;42597;40.636;0.278;2022-09-29T06:17:07;96174.88;;;18.13;50.70
56719;BME280;42597;40.636;0.278;2022-09-29T06:19:33;96178.97;;;17.27;52.53
56719;BME280;42597;40.636;0.278;2022-09-29T06:21:58;96166.38;;;19.40;52.09
56719;BME280;42597;40.636;0.278;2022-09-29T06:24:24;96165.28;;;19.86;50.99
56719;BME280;42597;40.636;0.278;2022-09-29T06:26:50;96157.16;;;19.83;50.45
56719;BME280;42597;40.636;0.278;2022-09-29T06:29:15;96150.53;;;19.47;51.92
56719;BME280;42597;40.636;0.278;2022-09-29T06:31:41;96145.00;;;20.13;50.16
56719;BME280;42597;40.636;0.278;2022-09-29T06:34:08;96156.78;;;19.48;51.44
56719;BME280;42597;40.636;0.278;2022-09-29T06:36:38;96149.41;;;19.29;51.60
56719;BME280;42597;40.636;0.278;2022-09-29T06:39:23;96143.22;;;19.90;49.97
56719;BME280;42597;40.636;0.278;2022-09-29T06:41:48;96149.78;;;19.47;46.75
56719;BME280;42597;40.636;0.278;2022-09-29T06:44:21;96124.84;;;19.41;49.84
56719;BME280;42597;40.636;0.278;2022-09-29T06:46:49;96111.00;;;19.65;49.84
56719;BME280;42597;40.636;0.278;2022-09-29T06:49:16;96095.25;;;18.67;47.80
56719;BME280;42597;40.636;0.278;2022-09-29T06:51:42;96086.78;;;19.63;48.93
56719;BME280;42597;40.636;0.278;2022-09-29T06:54:11;96075.81;;;18.98;47.21
56719;BME280;42597;40.636;0.278;2022-09-29T06:56:37;96071.00;;;19.67;50.80
56719;BME280;42597;40.636;0.278;2022-09-29T06:59:03;96078.06;;;18.67;50.88
56719;BME280;42597;40.636;0.278;2022-09-29T07:01:29;96090.66;;;18.24;52.45
56719;BME280;42597;40.636;0.278;2022-09-29T07:03:54;96086.78;;;19.14;46.67
56719;BME280;42597;40.636;0.278;2022-09-29T07:06:20;96088.88;;;19.72;49.18
56719;BME280;42597;40.636;0.278;2022-09-29T07:08:46;96098.66;;;18.15;50.42
56719;BME280;42597;40.636;0.278;2022-09-29T07:11:11;96108.66;;;18.62;47.45
56719;BME280;42597;40.636;0.278;2022-09-29T07:13:37;96120.84;;;17.54;50.26
56719;BME280;42597;40.636;0.278;2022-09-29T07:16:11;96129.38;;;17.56;50.65
56719;BME280;42597;40.636;0.278;2022-09-29T07:18:39;96136.66;;;19.06;49.23
56719;BME280;42597;40.636;0.278;2022-09-29T07:21:10;96162.78;;;19.59;47.20
56719;BME280;42597;40.636;0.278;2022-09-29T07:23:37;96190.09;;;18.94;49.76
56719;BME280;42597;40.636;0.278;2022-09-29T07:26:05;96206.66;;;19.92;50.17
56719;BME280;42597;40.636;0.278;2022-09-29T07:28:30;96196.88;;;19.91;49.91
56719;BME280;42597;40.636;0.278;2022-09-29T07:31:09;96193.50;;;19.18;51.61
56719;BME280;42597;40.636;0.278;2022-09-29T07:33:35;96193.75;;;17.81;48.88
56719;BME280;42597;40.636;0.278;2022-09-29T07:36:01;96185.63;;;18.84;51.60
56719;BME280;42597;40.636;0.278;2022-09-29T07:38:28;96196.00;;;19.45;46.75
56719;BME280;42597;40.636;0.278;2022-09-29T07:41:02;96189.44;;;19.91;50.42
56719;BME280;42597;40.636;0.278;2022-09-29T07:43:29;96187.59;;;19.36;50.03
56719;BME280;42597;40.636;0.278;2022-09-29T07:45:55;96185.63;;;19.53;49.51
56719;BME280;42597;40.636;0.278;2022-09-29T07:48:21;96182.31;;;19.94;50.51
56719;BME280;42597;40.636;0.278;2022-09-29T07:50:47;96187.00;;;18.92;47.27
56719;BME280;42597;40.636;0.278;2022-09-29T07:53:13;96180.66;;;19.31;49.21
56719;BME280;42597;40.636;0.278;2022-09-29T07:55:39;96179.78;;;19.70;49.71
56719;BME280;42597;40.636;0.278;2022-09-29T07:58:05;96178.38;;;19.95;49.04
56719;BME280;42597;40.636;0.278;2022-09-29T08:00:31;96187.09;;;19.57;47.76
56719;BME280;42597;40.636;0.278;2022-09-29T08:03:01;96182.16;;;19.68;51.30
56719;BME280;42597;40.636;0.278;2022-09-29T08:05:27;96181.53;;;19.93;50.21
56719;BME280;42597;40.636;0.278;2022-09-29T08:07:53;96182.78;;;19.23;50.19
56719;BME280;42597;40.636;0.278;2022-09-29T08:10:19;96179.38;;;19.19;51.27
56719;BME280;42597;40.636;0.278;2022-09-29T08:12:45;96183.19;;;19.91;50.21
56719;BME280;42597;40.636;0.278;2022-09-29T08:15:11;96177.41;;;20.02;50.25
56719;BME280;42597;40.636;0.278;2022-09-29T08:17:36;96187.06;;;19.24;47.54
56719;BME280;42597;40.636;0.278;2022-09-29T08:20:02;96184.53;;;19.99;50.46
56719;BME280;42597;40.636;0.278;2022-09-29T08:22:28;96181.06;;;19.82;50.47
56719;BME280;42597;40.636;0.278;2022-09-29T08:24:54;96184.63;;;19.95;50.44
56719;BME280;42597;40.636;0.278;2022-09-29T08:27:19;96183.09;;;19.94;50.02
56719;BME280;42597;40.636;0.278;2022-09-29T08:29:45;96193.47;;;19.87;50.80
56719;BME280;42597;40.636;0.278;2022-09-29T08:32:11;96195.66;;;19.43;51.20
56719;BME280;42597;40.636;0.278;2022-09-29T08:34:37;96197.19;;;19.60;46.55
56719;BME280;42597;40.636;0.278;2022-09-29T08:37:03;96201.75;;;20.00;50.15
56719;BME280;42597;40.636;0.278;2022-09-29T08:39:29;96208.03;;;19.67;50.58
56719;BME280;42597;40.636;0.278;2022-09-29T08:42:18;96208.78;;;20.01;49.92
56719;BME280;42597;40.636;0.278;2022-09-29T08:44:55;96199.91;;;19.28;47.30
56719;BME280;42597;40.636;0.278;2022-09-29T08:47:32;96197.63;;;18.70;46.84
56719;BME280;42597;40.636;0.278;2022-09-29T08:52:49;96194.47;;;19.93;50.59
56719;BME280;42597;40.636;0.278;2022-09-29T08:57:45;96201.69;;;19.70;49.75
56719;BME280;42597;40.636;0.278;2022-09-29T09:00:16;96203.69;;;20.15;49.38
56719;BME280;42597;40.636;0.278;2022-09-29T09:14:02;96201.97;;;20.21;49.65
56719;BME280;42597;40.636;0.278;2022-09-29T09:22:24;96199.94;;;19.93;50.35
56719;BME280;42597;40.636;0.278;2022-09-29T09:25:22;96190.31;;;20.17;49.95
56719;BME280;42597;40.636;0.278;2022-09-29T09:27:48;96191.41;;;19.75;50.58
56719;BME280;42597;40.636;0.278;2022-09-29T09:30:17;96187.28;;;19.83;46.64
56719;BME280;42597;40.636;0.278;2022-09-29T09:32:56;96200.00;;;19.40;48.08
56719;BME280;42597;40.636;0.278;2022-09-29T09:35:33;96189.38;;;19.62;49.28
56719;BME280;42597;40.636;0.278;2022-09-29T09:38:36;96174.47;;;19.63;46.83
56719;BME280;42597;40.636;0.278;2022-09-29T09:40:57;96169.97;;;19.86;46.11
56719;BME280;42597;40.636;0.278;2022-09-29T09:43:41;96170.50;;;20.26;49.88
56719;BME280;42597;40.636;0.278;2022-09-29T09:46:38;96156.94;;;19.90;50.09
56719;BME280;42597;40.636;0.278;2022-09-29T09:49:40;96182.25;;;19.65;47.63
56719;BME280;42597;40.636;0.278;2022-09-29T09:52:16;96157.50;;;20.14;50.12
56719;BME280;42597;40.636;0.278;2022-09-29T09:54:49;96159.81;;;19.86;45.68
56719;BME280;42597;40.636;0.278;2022-09-29T10:00:30;96164.44;;;20.18;48.91
56719;BME280;42597;40.636;0.278;2022-09-29T10:03:02;96169.63;;;18.62;45.63
56719;BME280;42597;40.636;0.278;2022-09-29T10:05:46;96171.66;;;18.58;45.81
56719;BME280;42597;40.636;0.278;2022-09-29T10:08:28;96167.31;;;19.33;48.94
56719;BME280;42597;40.636;0.278;2022-09-29T10:10:56;96151.81;;;19.92;48.84
56719;BME280;42597;40.636;0.278;2022-09-29T10:13:28;96153.06;;;20.04;48.54
56719;BME280;42597;40.636;0.278;2022-09-29T10:18:45;96157.13;;;20.28;47.36
56719;BME280;42597;40.636;0.278;2022-09-29T10:21:33;96151.81;;;20.50;47.60
56719;BME280;42597;40.636;0.278;2022-09-29T10:24:00;96146.16;;;20.57;47.14
56719;BME280;42597;40.636;0.278;2022-09-29T10:26:39;96152.59;;;20.21;44.25
56719;BME280;42597;40.636;0.278;2022-09-29T10:34:31;96142.66;;;20.69;42.84
56719;BME280;42597;40.636;0.278;2022-09-29T10:37:04;96138.00;;;20.54;46.03
56719;BME280;42597;40.636;0.278;2022-09-29T10:39:38;96134.66;;;20.62;46.34
56719;BME280;42597;40.636;0.278;2022-09-29T10:45:01;96121.59;;;20.66;46.03
56719;BME280;42597;40.636;0.278;2022-09-29T10:47:29;96121.91;;;20.68;45.92
56719;BME280;42597;40.636;0.278;2022-09-29T10:50:15;96131.63;;;20.99;40.67
56719;BME280;42597;40.636;0.278;2022-09-29T10:52:50;96121.47;;;20.70;45.11
56719;BME280;42597;40.636;0.278;2022-09-29T10:55:25;96137.81;;;20.74;44.72
56719;BME280;42597;40.636;0.278;2022-09-29T10:57:52;96129.06;;;20.79;44.63
56719;BME280;42597;40.636;0.278;2022-09-29T11:00:35;96119.84;;;20.98;41.71
56719;BME280;42597;40.636;0.278;2022-09-29T11:03:20;96106.56;;;20.84;43.77
56719;BME280;42597;40.636;0.278;2022-09-29T11:08:26;96106.09;;;20.85;43.49
56719;BME280;42597;40.636;0.278;2022-09-29T11:11:27;96105.59;;;20.90;43.53
56719;BME280;42597;40.636;0.278;2022-09-29T11:13:53;96114.56;;;21.16;39.38
56719;BME280;42597;40.636;0.278;2022-09-29T11:18:53;96103.91;;;20.80;43.79
56719;BME280;42597;40.636;0.278;2022-09-29T11:26:52;96088.56;;;20.95;40.12
56719;BME280;42597;40.636;0.278;2022-09-29T11:38:07;96090.63;;;21.04;43.73
56719;BME280;42597;40.636;0.278;2022-09-29T11:40:48;96098.09;;;20.91;44.30
56719;BME280;42597;40.636;0.278;2022-09-29T11:43:40;96101.50;;;21.20;41.51
56719;BME280;42597;40.636;0.278;2022-09-29T11:46:28;96092.16;;;21.05;41.36
56719;BME280;42597;40.636;0.278;2022-09-29T11:49:03;96091.50;;;21.27;40.24
56719;BME280;42597;40.636;0.278;2022-09-29T11:51:54;96092.56;;;21.29;39.91
56719;BME280;42597;40.636;0.278;2022-09-29T11:57:30;96075.03;;;21.01;43.22
56719;BME280;42597;40.636;0.278;2022-09-29T12:02:54;96074.91;;;21.05;42.56
56719;BME280;42597;40.636;0.278;2022-09-29T12:11:08;96063.94;;;22.00;39.06
56719;BME280;42597;40.636;0.278;2022-09-29T12:16:37;96058.50;;;21.52;36.85
56719;BME280;42597;40.636;0.278;2022-09-29T12:19:05;96058.69;;;21.58;39.33
56719;BME280;42597;40.636;0.278;2022-09-29T12:21:40;96062.47;;;21.51;40.33
56719;BME280;42597;40.636;0.278;2022-09-29T12:24:17;96056.75;;;22.02;37.28
56719;BME280;42597;40.636;0.278;2022-09-29T12:26:46;96052.78;;;21.81;39.52
56719;BME280;42597;40.636;0.278;2022-09-29T12:29:36;96057.81;;;21.61;40.06
56719;BME280;42597;40.636;0.278;2022-09-29T12:32:16;96043.38;;;21.35;40.80
56719;BME280;42597;40.636;0.278;2022-09-29T12:34:48;96039.31;;;21.61;39.33
56719;BME280;42597;40.636;0.278;2022-09-29T12:37:42;96046.34;;;21.62;38.64
56719;BME280;42597;40.636;0.278;2022-09-29T12:40:50;96032.38;;;21.69;37.04
56719;BME280;42597;40.636;0.278;2022-09-29T12:43:30;96034.19;;;21.51;36.77
56719;BME280;42597;40.636;0.278;2022-09-29T12:48:37;96024.50;;;21.59;39.72
56719;BME280;42597;40.636;0.278;2022-09-29T12:51:33;96032.81;;;21.90;37.78
56719;BME280;42597;40.636;0.278;2022-09-29T12:56:45;96024.78;;;22.17;36.40
56719;BME280;42597;40.636;0.278;2022-09-29T13:01:41;96023.72;;;21.58;39.47
56719;BME280;42597;40.636;0.278;2022-09-29T13:12:15;96027.97;;;21.25;39.84
56719;BME280;42597;40.636;0.278;2022-09-29T13:14:54;96021.41;;;21.09;41.09
56719;BME280;42597;40.636;0.278;2022-09-29T13:17:36;96018.75;;;21.18;40.02
56719;BME280;42597;40.636;0.278;2022-09-29T13:29:02;96019.41;;;21.10;38.86
56719;BME280;42597;40.636;0.278;2022-09-29T13:31:29;96020.88;;;21.02;38.31
56719;BME280;42597;40.636;0.278;2022-09-29T13:33:58;95996.50;;;21.04;39.54
56719;BME280;42597;40.636;0.278;2022-09-29T13:36:39;95998.78;;;21.05;40.48
56719;BME280;42597;40.636;0.278;2022-09-29T13:39:24;95996.03;;;21.05;39.11
56719;BME280;42597;40.636;0.278;2022-09-29T13:41:54;95997.91;;;21.08;39.99
56719;BME280;42597;40.636;0.278;2022-09-29T13:44:27;95997.47;;;20.97;40.41
56719;BME280;42597;40.636;0.278;2022-09-29T13:46:54;95988.81;;;20.99;40.33
56719;BME280;42597;40.636;0.278;2022-09-29T13:51:54;95993.28;;;21.05;38.69
56719;BME280;42597;40.636;0.278;2022-09-29T13:54:21;95995.19;;;20.95;38.93
56719;BME280;42597;40.636;0.278;2022-09-29T13:59:28;95994.59;;;21.13;38.20
56719;BME280;42597;40.636;0.278;2022-09-29T14:01:55;95982.88;;;21.00;40.02
56719;BME280;42597;40.636;0.278;2022-09-29T14:04:50;95992.53;;;21.05;39.84
56719;BME280;42597;40.636;0.278;2022-09-29T14:13:26;95988.69;;;21.02;39.79
56719;BME280;42597;40.636;0.278;2022-09-29T14:18:39;95992.19;;;21.15;39.34
56719;BME280;42597;40.636;0.278;2022-09-29T14:23:59;95988.44;;;21.09;40.40
56719;BME280;42597;40.636;0.278;2022-09-29T14:26:44;95985.38;;;21.07;39.79
56719;BME280;42597;40.636;0.278;2022-09-29T14:31:48;95975.94;;;21.08;39.06
56719;BME280;42597;40.636;0.278;2022-09-29T14:34:16;95973.31;;;21.05;40.10
56719;BME280;42597;40.636;0.278;2022-09-29T14:36:45;95978.34;;;21.06;39.39
56719;BME280;42597;40.636;0.278;2022-09-29T14:39:13;95974.16;;;21.14;39.68
56719;BME280;42597;40.636;0.278;2022-09-29T14:41:42;95974.41;;;21.07;39.99
56719;BME280;42597;40.636;0.278;2022-09-29T14:44:12;95972.84;;;21.06;38.75
56719;BME280;42597;40.636;0.278;2022-09-29T14:50:34;95959.56;;;21.05;40.21
56719;BME280;42597;40.636;0.278;2022-09-29T14:52:59;95953.75;;;21.03;40.67
56719;BME280;42597;40.636;0.278;2022-09-29T15:03:49;95954.28;;;21.10;39.89
56719;BME280;42597;40.636;0.278;2022-09-29T15:06:16;95949.41;;;21.14;39.35
56719;BME280;42597;40.636;0.278;2022-09-29T15:09:21;95960.09;;;21.12;39.25
56719;BME280;42597;40.636;0.278;2022-09-29T15:11:55;95965.03;;;21.17;39.93
56719;BME280;42597;40.636;0.278;2022-09-29T15:14:31;95955.13;;;21.20;38.52
56719;BME280;42597;40.636;0.278;2022-09-29T15:17:24;95963.81;;;21.18;39.76
56719;BME280;42597;40.636;0.278;2022-09-29T15:20:19;95959.91;;;21.07;39.90
56719;BME280;42597;40.636;0.278;2022-09-29T15:26:12;95964.59;;;21.06;39.76
56719;BME280;42597;40.636;0.278;2022-09-29T15:28:38;95951.03;;;21.03;38.78
56719;BME280;42597;40.636;0.278;2022-09-29T15:31:30;95962.78;;;21.03;38.85
56719;BME280;42597;40.636;0.278;2022-09-29T15:33:59;95951.38;;;20.92;39.29
56719;BME280;42597;40.636;0.278;2022-09-29T15:36:28;95954.13;;;20.92;39.69
56719;BME280;42597;40.636;0.278;2022-09-29T15:39:03;95955.22;;;20.94;39.96
56719;BME280;42597;40.636;0.278;2022-09-29T15:41:30;95958.16;;;21.00;39.54
56719;BME280;42597;40.636;0.278;2022-09-29T15:44:15;95962.66;;;20.94;38.57
56719;BME280;42597;40.636;0.278;2022-09-29T15:46:50;95960.56;;;20.98;39.65
56719;BME280;42597;40.636;0.278;2022-09-29T15:49:22;95946.28;;;21.03;40.17
56719;BME280;42597;40.636;0.278;2022-09-29T15:54:32;95949.47;;;21.02;39.91
56719;BME280;42597;40.636;0.278;2022-09-29T15:57:02;95942.00;;;21.02;40.01
56719;BME280;42597;40.636;0.278;2022-09-29T15:59:49;95937.59;;;21.05;40.15
56719;BME280;42597;40.636;0.278;2022-09-29T16:05:02;95947.41;;;20.93;40.31
56719;BME280;42597;40.636;0.278;2022-09-29T16:07:32;95942.13;;;20.99;40.24
56719;BME280;42597;40.636;0.278;2022-09-29T16:10:12;95948.69;;;21.01;40.17
56719;BME280;42597;40.636;0.278;2022-09-29T16:12:48;95959.00;;;21.10;40.75
56719;BME280;42597;40.636;0.278;2022-09-29T16:17:48;95967.03;;;21.04;40.37
56719;BME280;42597;40.636;0.278;2022-09-29T16:20:20;95958.91;;;21.01;40.50